sensor_id;sensor_type;location;lat;lon;timestamp;P1;durP1;ratioP1;P2;durP2;ratioP2
53833;SDS011;39735;51.432;5.482;2023-11-19T00:01:48;17.17;;;5.40;;
53833;SDS011;39735;51.432;5.482;2023-11-19T00:04:13;12.85;;;3.67;;
53833;SDS011;39735;51.432;5.482;2023-11-19T00:06:39;11.57;;;3.33;;
53833;SDS011;39735;51.432;5.482;2023-11-19T00:09:04;12.77;;;3.17;;
53833;SDS011;39735;51.432;5.482;2023-11-19T00:11:30;16.90;;;2.78;;
53833;SDS011;39735;51.432;5.482;2023-11-19T00:13:55;13.18;;;2.22;;
53833;SDS011;39735;51.432;5.482;2023-11-19T00:16:20;8.23;;;4.07;;
53833;SDS011;39735;51.432;5.482;2023-11-19T00:18:45;10.25;;;3.70;;
53833;SDS011;39735;51.432;5.482;2023-11-19T00:21:11;5.60;;;2.97;;
53833;SDS011;39735;51.432;5.482;2023-11-19T00:23:36;10.47;;;2.10;;
53833;SDS011;39735;51.432;5.482;2023-11-19T00:26:02;2.60;;;1.67;;
53833;SDS011;39735;51.432;5.482;2023-11-19T00:28:27;27.20;;;2.20;;
53833;SDS011;39735;51.432;5.482;2023-11-19T00:30:53;5.07;;;1.45;;
53833;SDS011;39735;51.432;5.482;2023-11-19T00:33:18;3.75;;;1.63;;
53833;SDS011;39735;51.432;5.482;2023-11-19T00:35:44;5.13;;;2.07;;
53833;SDS011;39735;51.432;5.482;2023-11-19T00:38:09;6.85;;;1.50;;
53833;SDS011;39735;51.432;5.482;2023-11-19T00:40:34;3.00;;;1.95;;
53833;SDS011;39735;51.432;5.482;2023-11-19T00:42:59;14.52;;;2.00;;
53833;SDS011;39735;51.432;5.482;2023-11-19T00:45:25;13.30;;;2.85;;
53833;SDS011;39735;51.432;5.482;2023-11-19T00:50:24;6.32;;;1.55;;
53833;SDS011;39735;51.432;5.482;2023-11-19T00:52:50;9.95;;;2.00;;
53833;SDS011;39735;51.432;5.482;2023-11-19T00:55:19;17.00;;;3.75;;
53833;SDS011;39735;51.432;5.482;2023-11-19T00:57:44;14.82;;;3.15;;
53833;SDS011;39735;51.432;5.482;2023-11-19T01:00:10;3.83;;;2.38;;
53833;SDS011;39735;51.432;5.482;2023-11-19T01:02:53;13.75;;;2.97;;
53833;SDS011;39735;51.432;5.482;2023-11-19T01:05:19;14.23;;;2.20;;
53833;SDS011;39735;51.432;5.482;2023-11-19T01:07:47;40.15;;;2.67;;
53833;SDS011;39735;51.432;5.482;2023-11-19T01:10:13;13.95;;;4.70;;
53833;SDS011;39735;51.432;5.482;2023-11-19T01:12:38;15.00;;;3.42;;
53833;SDS011;39735;51.432;5.482;2023-11-19T01:15:04;16.08;;;2.83;;
53833;SDS011;39735;51.432;5.482;2023-11-19T01:17:29;30.50;;;4.45;;
53833;SDS011;39735;51.432;5.482;2023-11-19T01:19:56;27.10;;;5.07;;
53833;SDS011;39735;51.432;5.482;2023-11-19T01:22:22;30.45;;;3.92;;
53833;SDS011;39735;51.432;5.482;2023-11-19T01:24:48;18.38;;;4.93;;
53833;SDS011;39735;51.432;5.482;2023-11-19T01:27:13;33.00;;;3.00;;
53833;SDS011;39735;51.432;5.482;2023-11-19T01:29:38;29.30;;;4.13;;
53833;SDS011;39735;51.432;5.482;2023-11-19T01:32:04;16.15;;;4.40;;
53833;SDS011;39735;51.432;5.482;2023-11-19T01:34:29;33.38;;;7.72;;
53833;SDS011;39735;51.432;5.482;2023-11-19T01:36:55;12.15;;;2.25;;
53833;SDS011;39735;51.432;5.482;2023-11-19T01:39:20;27.23;;;4.25;;
53833;SDS011;39735;51.432;5.482;2023-11-19T01:41:46;32.65;;;3.63;;
53833;SDS011;39735;51.432;5.482;2023-11-19T01:44:11;28.27;;;4.88;;
53833;SDS011;39735;51.432;5.482;2023-11-19T01:46:42;38.45;;;4.68;;
53833;SDS011;39735;51.432;5.482;2023-11-19T01:49:08;18.95;;;3.85;;
53833;SDS011;39735;51.432;5.482;2023-11-19T01:51:34;22.35;;;2.63;;
53833;SDS011;39735;51.432;5.482;2023-11-19T01:54:00;29.95;;;4.25;;
53833;SDS011;39735;51.432;5.482;2023-11-19T01:56:25;20.80;;;3.05;;
53833;SDS011;39735;51.432;5.482;2023-11-19T01:58:51;19.38;;;5.82;;
53833;SDS011;39735;51.432;5.482;2023-11-19T02:01:17;28.92;;;4.65;;
53833;SDS011;39735;51.432;5.482;2023-11-19T02:03:43;23.48;;;4.10;;
53833;SDS011;39735;51.432;5.482;2023-11-19T02:06:10;20.00;;;2.78;;
53833;SDS011;39735;51.432;5.482;2023-11-19T02:08:35;27.73;;;3.97;;
53833;SDS011;39735;51.432;5.482;2023-11-19T02:11:00;30.27;;;2.97;;
53833;SDS011;39735;51.432;5.482;2023-11-19T02:13:27;18.40;;;3.30;;
53833;SDS011;39735;51.432;5.482;2023-11-19T02:15:53;19.20;;;4.55;;
53833;SDS011;39735;51.432;5.482;2023-11-19T02:18:23;18.05;;;4.75;;
53833;SDS011;39735;51.432;5.482;2023-11-19T02:20:49;33.75;;;3.63;;
53833;SDS011;39735;51.432;5.482;2023-11-19T02:23:15;44.47;;;5.57;;
53833;SDS011;39735;51.432;5.482;2023-11-19T02:25:40;30.48;;;3.70;;
53833;SDS011;39735;51.432;5.482;2023-11-19T02:28:06;17.20;;;2.40;;
53833;SDS011;39735;51.432;5.482;2023-11-19T02:30:31;23.45;;;3.20;;
53833;SDS011;39735;51.432;5.482;2023-11-19T02:32:57;27.90;;;3.65;;
53833;SDS011;39735;51.432;5.482;2023-11-19T02:35:26;58.60;;;11.10;;
53833;SDS011;39735;51.432;5.482;2023-11-19T02:37:52;52.30;;;5.90;;
53833;SDS011;39735;51.432;5.482;2023-11-19T02:40:17;43.90;;;6.07;;
53833;SDS011;39735;51.432;5.482;2023-11-19T02:42:43;51.78;;;6.05;;
53833;SDS011;39735;51.432;5.482;2023-11-19T02:45:08;39.72;;;5.00;;
53833;SDS011;39735;51.432;5.482;2023-11-19T02:47:39;41.28;;;6.00;;
53833;SDS011;39735;51.432;5.482;2023-11-19T02:50:04;35.70;;;5.35;;
53833;SDS011;39735;51.432;5.482;2023-11-19T02:52:32;54.40;;;5.45;;
53833;SDS011;39735;51.432;5.482;2023-11-19T02:55:02;35.33;;;4.93;;
53833;SDS011;39735;51.432;5.482;2023-11-19T02:57:30;72.63;;;8.77;;
53833;SDS011;39735;51.432;5.482;2023-11-19T02:59:55;53.28;;;8.85;;
53833;SDS011;39735;51.432;5.482;2023-11-19T03:02:21;54.72;;;8.25;;
53833;SDS011;39735;51.432;5.482;2023-11-19T03:04:47;65.22;;;8.80;;
53833;SDS011;39735;51.432;5.482;2023-11-19T03:07:12;65.22;;;7.65;;
53833;SDS011;39735;51.432;5.482;2023-11-19T03:09:38;37.03;;;5.95;;
53833;SDS011;39735;51.432;5.482;2023-11-19T03:12:05;57.95;;;6.50;;
53833;SDS011;39735;51.432;5.482;2023-11-19T03:14:33;75.68;;;7.07;;
53833;SDS011;39735;51.432;5.482;2023-11-19T03:16:59;62.53;;;6.82;;
53833;SDS011;39735;51.432;5.482;2023-11-19T03:19:24;64.82;;;6.85;;
53833;SDS011;39735;51.432;5.482;2023-11-19T03:21:49;64.27;;;7.10;;
53833;SDS011;39735;51.432;5.482;2023-11-19T03:24:15;55.58;;;5.35;;
53833;SDS011;39735;51.432;5.482;2023-11-19T03:26:40;77.63;;;8.45;;
53833;SDS011;39735;51.432;5.482;2023-11-19T03:29:07;61.75;;;5.63;;
53833;SDS011;39735;51.432;5.482;2023-11-19T03:31:33;76.10;;;11.55;;
53833;SDS011;39735;51.432;5.482;2023-11-19T03:33:58;82.38;;;14.25;;
53833;SDS011;39735;51.432;5.482;2023-11-19T03:36:23;74.35;;;9.00;;
53833;SDS011;39735;51.432;5.482;2023-11-19T03:38:48;48.25;;;7.55;;
53833;SDS011;39735;51.432;5.482;2023-11-19T03:41:14;86.43;;;11.27;;
53833;SDS011;39735;51.432;5.482;2023-11-19T03:43:40;76.03;;;10.27;;
53833;SDS011;39735;51.432;5.482;2023-11-19T03:46:15;67.00;;;9.40;;
53833;SDS011;39735;51.432;5.482;2023-11-19T03:48:40;65.47;;;7.90;;
53833;SDS011;39735;51.432;5.482;2023-11-19T03:51:06;56.33;;;9.93;;
53833;SDS011;39735;51.432;5.482;2023-11-19T03:53:31;70.60;;;8.95;;
53833;SDS011;39735;51.432;5.482;2023-11-19T03:55:56;80.65;;;10.25;;
53833;SDS011;39735;51.432;5.482;2023-11-19T03:58:21;49.88;;;6.93;;
53833;SDS011;39735;51.432;5.482;2023-11-19T04:00:47;73.27;;;12.00;;
53833;SDS011;39735;51.432;5.482;2023-11-19T04:03:12;59.70;;;7.60;;
53833;SDS011;39735;51.432;5.482;2023-11-19T04:05:37;71.78;;;8.73;;
53833;SDS011;39735;51.432;5.482;2023-11-19T04:08:03;71.20;;;10.05;;
53833;SDS011;39735;51.432;5.482;2023-11-19T04:10:28;61.80;;;9.73;;
53833;SDS011;39735;51.432;5.482;2023-11-19T04:12:53;74.20;;;10.95;;
53833;SDS011;39735;51.432;5.482;2023-11-19T04:15:18;60.13;;;7.28;;
53833;SDS011;39735;51.432;5.482;2023-11-19T04:17:44;68.45;;;8.05;;
53833;SDS011;39735;51.432;5.482;2023-11-19T04:20:09;75.72;;;9.10;;
53833;SDS011;39735;51.432;5.482;2023-11-19T04:22:38;77.97;;;8.18;;
53833;SDS011;39735;51.432;5.482;2023-11-19T04:25:03;71.68;;;8.57;;
53833;SDS011;39735;51.432;5.482;2023-11-19T04:27:29;100.32;;;14.27;;
53833;SDS011;39735;51.432;5.482;2023-11-19T04:29:55;76.03;;;8.70;;
53833;SDS011;39735;51.432;5.482;2023-11-19T04:32:20;85.82;;;9.27;;
53833;SDS011;39735;51.432;5.482;2023-11-19T04:34:46;77.57;;;10.07;;
53833;SDS011;39735;51.432;5.482;2023-11-19T04:37:11;91.82;;;8.93;;
53833;SDS011;39735;51.432;5.482;2023-11-19T04:39:36;68.78;;;9.52;;
53833;SDS011;39735;51.432;5.482;2023-11-19T04:42:02;92.43;;;12.40;;
53833;SDS011;39735;51.432;5.482;2023-11-19T04:44:29;64.30;;;8.43;;
53833;SDS011;39735;51.432;5.482;2023-11-19T04:46:54;61.83;;;7.72;;
53833;SDS011;39735;51.432;5.482;2023-11-19T04:49:20;62.75;;;10.10;;
53833;SDS011;39735;51.432;5.482;2023-11-19T04:51:45;80.95;;;10.32;;
53833;SDS011;39735;51.432;5.482;2023-11-19T04:54:14;64.35;;;7.53;;
53833;SDS011;39735;51.432;5.482;2023-11-19T04:56:40;80.57;;;8.90;;
53833;SDS011;39735;51.432;5.482;2023-11-19T04:59:05;66.25;;;7.72;;
53833;SDS011;39735;51.432;5.482;2023-11-19T05:01:33;72.88;;;12.60;;
53833;SDS011;39735;51.432;5.482;2023-11-19T05:03:59;90.47;;;10.85;;
53833;SDS011;39735;51.432;5.482;2023-11-19T05:06:30;69.22;;;9.02;;
53833;SDS011;39735;51.432;5.482;2023-11-19T05:08:56;65.72;;;8.07;;
53833;SDS011;39735;51.432;5.482;2023-11-19T05:11:21;66.63;;;13.10;;
53833;SDS011;39735;51.432;5.482;2023-11-19T05:13:47;75.10;;;11.77;;
53833;SDS011;39735;51.432;5.482;2023-11-19T05:16:12;61.50;;;9.48;;
53833;SDS011;39735;51.432;5.482;2023-11-19T05:18:40;100.35;;;12.15;;
53833;SDS011;39735;51.432;5.482;2023-11-19T05:21:06;66.03;;;8.13;;
53833;SDS011;39735;51.432;5.482;2023-11-19T05:23:32;99.22;;;10.13;;
53833;SDS011;39735;51.432;5.482;2023-11-19T05:25:58;74.20;;;11.32;;
53833;SDS011;39735;51.432;5.482;2023-11-19T05:28:24;115.75;;;12.88;;
53833;SDS011;39735;51.432;5.482;2023-11-19T05:30:51;80.00;;;10.73;;
53833;SDS011;39735;51.432;5.482;2023-11-19T05:33:16;76.00;;;10.75;;
53833;SDS011;39735;51.432;5.482;2023-11-19T05:35:41;85.78;;;9.70;;
53833;SDS011;39735;51.432;5.482;2023-11-19T05:38:06;62.22;;;9.43;;
53833;SDS011;39735;51.432;5.482;2023-11-19T05:40:32;71.38;;;10.07;;
53833;SDS011;39735;51.432;5.482;2023-11-19T05:42:57;78.65;;;11.85;;
53833;SDS011;39735;51.432;5.482;2023-11-19T05:45:23;78.07;;;11.65;;
53833;SDS011;39735;51.432;5.482;2023-11-19T05:47:48;64.53;;;8.83;;
53833;SDS011;39735;51.432;5.482;2023-11-19T05:50:13;84.15;;;12.70;;
53833;SDS011;39735;51.432;5.482;2023-11-19T05:52:39;102.45;;;13.35;;
53833;SDS011;39735;51.432;5.482;2023-11-19T05:55:04;86.07;;;13.95;;
53833;SDS011;39735;51.432;5.482;2023-11-19T05:57:34;81.53;;;12.10;;
53833;SDS011;39735;51.432;5.482;2023-11-19T05:59:59;73.22;;;8.32;;
53833;SDS011;39735;51.432;5.482;2023-11-19T06:02:25;84.78;;;12.52;;
53833;SDS011;39735;51.432;5.482;2023-11-19T06:04:50;90.10;;;12.32;;
53833;SDS011;39735;51.432;5.482;2023-11-19T06:07:15;59.10;;;9.38;;
53833;SDS011;39735;51.432;5.482;2023-11-19T06:09:41;78.07;;;9.85;;
53833;SDS011;39735;51.432;5.482;2023-11-19T06:12:06;76.95;;;9.75;;
53833;SDS011;39735;51.432;5.482;2023-11-19T06:14:32;90.72;;;9.07;;
53833;SDS011;39735;51.432;5.482;2023-11-19T06:16:57;100.03;;;12.35;;
53833;SDS011;39735;51.432;5.482;2023-11-19T06:19:23;80.13;;;10.90;;
53833;SDS011;39735;51.432;5.482;2023-11-19T06:21:49;89.55;;;10.57;;
53833;SDS011;39735;51.432;5.482;2023-11-19T06:24:15;85.07;;;12.15;;
53833;SDS011;39735;51.432;5.482;2023-11-19T06:26:40;83.43;;;8.23;;
53833;SDS011;39735;51.432;5.482;2023-11-19T06:29:05;77.97;;;8.80;;
53833;SDS011;39735;51.432;5.482;2023-11-19T06:31:30;81.75;;;9.32;;
53833;SDS011;39735;51.432;5.482;2023-11-19T06:33:56;73.97;;;8.75;;
53833;SDS011;39735;51.432;5.482;2023-11-19T06:36:21;75.43;;;12.13;;
53833;SDS011;39735;51.432;5.482;2023-11-19T06:38:46;53.95;;;8.13;;
53833;SDS011;39735;51.432;5.482;2023-11-19T06:41:12;71.28;;;9.35;;
53833;SDS011;39735;51.432;5.482;2023-11-19T06:43:37;79.40;;;13.40;;
53833;SDS011;39735;51.432;5.482;2023-11-19T06:46:02;86.35;;;10.10;;
53833;SDS011;39735;51.432;5.482;2023-11-19T06:48:30;66.45;;;11.85;;
53833;SDS011;39735;51.432;5.482;2023-11-19T06:50:57;82.55;;;11.90;;
53833;SDS011;39735;51.432;5.482;2023-11-19T06:53:22;76.13;;;9.88;;
53833;SDS011;39735;51.432;5.482;2023-11-19T06:55:47;56.10;;;8.85;;
53833;SDS011;39735;51.432;5.482;2023-11-19T06:58:13;79.35;;;10.32;;
53833;SDS011;39735;51.432;5.482;2023-11-19T07:00:38;73.07;;;8.05;;
53833;SDS011;39735;51.432;5.482;2023-11-19T07:03:03;104.57;;;12.32;;
53833;SDS011;39735;51.432;5.482;2023-11-19T07:05:29;71.47;;;9.43;;
53833;SDS011;39735;51.432;5.482;2023-11-19T07:07:55;61.15;;;8.30;;
53833;SDS011;39735;51.432;5.482;2023-11-19T07:10:20;86.25;;;12.55;;
53833;SDS011;39735;51.432;5.482;2023-11-19T07:12:46;100.75;;;13.02;;
53833;SDS011;39735;51.432;5.482;2023-11-19T07:15:12;85.70;;;11.30;;
53833;SDS011;39735;51.432;5.482;2023-11-19T07:17:38;84.15;;;13.43;;
53833;SDS011;39735;51.432;5.482;2023-11-19T07:20:05;88.80;;;14.25;;
53833;SDS011;39735;51.432;5.482;2023-11-19T07:22:30;97.55;;;13.38;;
53833;SDS011;39735;51.432;5.482;2023-11-19T07:24:56;81.85;;;10.68;;
53833;SDS011;39735;51.432;5.482;2023-11-19T07:27:21;97.78;;;13.27;;
53833;SDS011;39735;51.432;5.482;2023-11-19T07:29:47;81.72;;;9.85;;
53833;SDS011;39735;51.432;5.482;2023-11-19T07:32:13;81.40;;;11.45;;
53833;SDS011;39735;51.432;5.482;2023-11-19T07:34:38;103.03;;;13.75;;
53833;SDS011;39735;51.432;5.482;2023-11-19T07:37:04;97.18;;;10.50;;
53833;SDS011;39735;51.432;5.482;2023-11-19T07:39:30;110.60;;;12.93;;
53833;SDS011;39735;51.432;5.482;2023-11-19T07:41:55;66.68;;;8.63;;
53833;SDS011;39735;51.432;5.482;2023-11-19T07:44:20;97.30;;;12.85;;
53833;SDS011;39735;51.432;5.482;2023-11-19T07:46:49;80.10;;;13.93;;
53833;SDS011;39735;51.432;5.482;2023-11-19T07:49:14;84.40;;;12.95;;
53833;SDS011;39735;51.432;5.482;2023-11-19T07:51:40;109.03;;;17.27;;
53833;SDS011;39735;51.432;5.482;2023-11-19T07:54:05;85.53;;;10.73;;
53833;SDS011;39735;51.432;5.482;2023-11-19T07:56:31;82.40;;;11.63;;
53833;SDS011;39735;51.432;5.482;2023-11-19T07:58:56;85.10;;;12.38;;
53833;SDS011;39735;51.432;5.482;2023-11-19T08:01:22;62.13;;;10.10;;
53833;SDS011;39735;51.432;5.482;2023-11-19T08:03:48;87.55;;;14.20;;
53833;SDS011;39735;51.432;5.482;2023-11-19T08:06:14;93.88;;;10.18;;
53833;SDS011;39735;51.432;5.482;2023-11-19T08:08:39;74.68;;;10.60;;
53833;SDS011;39735;51.432;5.482;2023-11-19T08:11:04;116.40;;;10.00;;
53833;SDS011;39735;51.432;5.482;2023-11-19T08:13:30;79.88;;;9.15;;
53833;SDS011;39735;51.432;5.482;2023-11-19T08:15:56;74.30;;;10.25;;
53833;SDS011;39735;51.432;5.482;2023-11-19T08:18:23;81.82;;;9.23;;
53833;SDS011;39735;51.432;5.482;2023-11-19T08:20:48;91.53;;;10.82;;
53833;SDS011;39735;51.432;5.482;2023-11-19T08:23:17;69.43;;;7.93;;
53833;SDS011;39735;51.432;5.482;2023-11-19T08:25:43;86.15;;;11.63;;
53833;SDS011;39735;51.432;5.482;2023-11-19T08:28:09;71.43;;;8.05;;
53833;SDS011;39735;51.432;5.482;2023-11-19T08:30:34;96.10;;;10.57;;
53833;SDS011;39735;51.432;5.482;2023-11-19T08:33:00;56.15;;;6.65;;
53833;SDS011;39735;51.432;5.482;2023-11-19T08:35:27;80.00;;;8.85;;
53833;SDS011;39735;51.432;5.482;2023-11-19T08:37:53;88.15;;;11.85;;
53833;SDS011;39735;51.432;5.482;2023-11-19T08:40:19;98.32;;;11.07;;
53833;SDS011;39735;51.432;5.482;2023-11-19T08:42:45;82.47;;;11.52;;
53833;SDS011;39735;51.432;5.482;2023-11-19T08:45:10;64.63;;;8.80;;
53833;SDS011;39735;51.432;5.482;2023-11-19T08:47:36;100.63;;;12.35;;
53833;SDS011;39735;51.432;5.482;2023-11-19T08:50:02;88.78;;;11.68;;
53833;SDS011;39735;51.432;5.482;2023-11-19T08:52:28;104.75;;;11.52;;
53833;SDS011;39735;51.432;5.482;2023-11-19T08:54:54;84.82;;;15.40;;
53833;SDS011;39735;51.432;5.482;2023-11-19T08:57:19;99.13;;;13.43;;
53833;SDS011;39735;51.432;5.482;2023-11-19T08:59:45;80.30;;;8.57;;
53833;SDS011;39735;51.432;5.482;2023-11-19T09:02:11;79.70;;;10.52;;
53833;SDS011;39735;51.432;5.482;2023-11-19T09:04:36;65.90;;;11.35;;
53833;SDS011;39735;51.432;5.482;2023-11-19T09:07:02;102.78;;;12.30;;
53833;SDS011;39735;51.432;5.482;2023-11-19T09:09:28;88.47;;;12.80;;
53833;SDS011;39735;51.432;5.482;2023-11-19T09:11:53;80.20;;;10.75;;
53833;SDS011;39735;51.432;5.482;2023-11-19T09:14:19;82.85;;;11.93;;
53833;SDS011;39735;51.432;5.482;2023-11-19T09:16:49;78.32;;;11.63;;
53833;SDS011;39735;51.432;5.482;2023-11-19T09:19:14;72.82;;;9.07;;
53833;SDS011;39735;51.432;5.482;2023-11-19T09:21:39;91.03;;;11.38;;
53833;SDS011;39735;51.432;5.482;2023-11-19T09:24:05;88.63;;;10.73;;
53833;SDS011;39735;51.432;5.482;2023-11-19T09:26:30;66.97;;;9.02;;
53833;SDS011;39735;51.432;5.482;2023-11-19T09:28:55;85.05;;;7.80;;
53833;SDS011;39735;51.432;5.482;2023-11-19T09:31:21;56.17;;;9.27;;
53833;SDS011;39735;51.432;5.482;2023-11-19T09:33:46;84.32;;;13.55;;
53833;SDS011;39735;51.432;5.482;2023-11-19T09:36:11;61.65;;;9.93;;
53833;SDS011;39735;51.432;5.482;2023-11-19T09:38:38;82.38;;;10.15;;
53833;SDS011;39735;51.432;5.482;2023-11-19T09:41:07;86.97;;;12.27;;
53833;SDS011;39735;51.432;5.482;2023-11-19T09:43:33;85.63;;;11.23;;
53833;SDS011;39735;51.432;5.482;2023-11-19T09:45:59;65.65;;;9.82;;
53833;SDS011;39735;51.432;5.482;2023-11-19T09:48:30;76.95;;;9.55;;
53833;SDS011;39735;51.432;5.482;2023-11-19T09:50:56;67.63;;;8.60;;
53833;SDS011;39735;51.432;5.482;2023-11-19T09:53:21;83.80;;;9.55;;
53833;SDS011;39735;51.432;5.482;2023-11-19T09:55:46;106.40;;;11.70;;
53833;SDS011;39735;51.432;5.482;2023-11-19T09:58:12;73.13;;;11.95;;
53833;SDS011;39735;51.432;5.482;2023-11-19T10:00:39;79.20;;;9.20;;
53833;SDS011;39735;51.432;5.482;2023-11-19T10:03:04;82.15;;;10.45;;
53833;SDS011;39735;51.432;5.482;2023-11-19T10:05:31;87.03;;;10.35;;
53833;SDS011;39735;51.432;5.482;2023-11-19T10:07:56;76.07;;;10.43;;
53833;SDS011;39735;51.432;5.482;2023-11-19T10:10:21;70.65;;;9.40;;
53833;SDS011;39735;51.432;5.482;2023-11-19T10:12:46;83.13;;;11.40;;
53833;SDS011;39735;51.432;5.482;2023-11-19T10:15:21;73.37;;;9.07;;
53833;SDS011;39735;51.432;5.482;2023-11-19T10:17:47;53.38;;;6.90;;
53833;SDS011;39735;51.432;5.482;2023-11-19T10:20:13;71.50;;;10.18;;
53833;SDS011;39735;51.432;5.482;2023-11-19T10:22:38;79.60;;;10.48;;
53833;SDS011;39735;51.432;5.482;2023-11-19T10:25:04;43.03;;;8.57;;
53833;SDS011;39735;51.432;5.482;2023-11-19T10:27:29;64.90;;;9.55;;
53833;SDS011;39735;51.432;5.482;2023-11-19T10:29:57;62.83;;;6.90;;
53833;SDS011;39735;51.432;5.482;2023-11-19T10:32:24;80.68;;;10.40;;
53833;SDS011;39735;51.432;5.482;2023-11-19T10:34:49;72.15;;;7.97;;
53833;SDS011;39735;51.432;5.482;2023-11-19T10:37:27;49.03;;;7.90;;
53833;SDS011;39735;51.432;5.482;2023-11-19T10:39:53;74.32;;;10.25;;
53833;SDS011;39735;51.432;5.482;2023-11-19T10:42:22;57.80;;;7.93;;
53833;SDS011;39735;51.432;5.482;2023-11-19T10:44:47;58.63;;;8.98;;
53833;SDS011;39735;51.432;5.482;2023-11-19T10:47:16;54.40;;;6.32;;
53833;SDS011;39735;51.432;5.482;2023-11-19T10:49:44;52.53;;;9.50;;
53833;SDS011;39735;51.432;5.482;2023-11-19T10:52:10;70.32;;;8.73;;
53833;SDS011;39735;51.432;5.482;2023-11-19T10:54:36;53.38;;;9.18;;
53833;SDS011;39735;51.432;5.482;2023-11-19T10:57:02;70.32;;;8.57;;
53833;SDS011;39735;51.432;5.482;2023-11-19T10:59:31;47.17;;;8.05;;
53833;SDS011;39735;51.432;5.482;2023-11-19T11:01:59;59.47;;;6.57;;
53833;SDS011;39735;51.432;5.482;2023-11-19T11:04:25;79.30;;;10.15;;
53833;SDS011;39735;51.432;5.482;2023-11-19T11:06:56;40.80;;;5.55;;
53833;SDS011;39735;51.432;5.482;2023-11-19T11:09:23;64.72;;;8.70;;
53833;SDS011;39735;51.432;5.482;2023-11-19T11:11:51;61.30;;;9.38;;
53833;SDS011;39735;51.432;5.482;2023-11-19T11:14:17;90.82;;;9.85;;
53833;SDS011;39735;51.432;5.482;2023-11-19T11:16:43;63.05;;;10.57;;
53833;SDS011;39735;51.432;5.482;2023-11-19T11:19:12;90.47;;;8.13;;
53833;SDS011;39735;51.432;5.482;2023-11-19T11:21:38;66.70;;;8.02;;
53833;SDS011;39735;51.432;5.482;2023-11-19T11:34:49;59.28;;;7.00;;
53833;SDS011;39735;51.432;5.482;2023-11-19T11:39:49;70.82;;;9.50;;
53833;SDS011;39735;51.432;5.482;2023-11-19T11:47:23;43.42;;;5.82;;
53833;SDS011;39735;51.432;5.482;2023-11-19T11:49:48;63.23;;;10.27;;
53833;SDS011;39735;51.432;5.482;2023-11-19T11:52:14;66.43;;;10.10;;
53833;SDS011;39735;51.432;5.482;2023-11-19T11:54:41;53.25;;;7.05;;
53833;SDS011;39735;51.432;5.482;2023-11-19T11:57:07;54.95;;;8.73;;
53833;SDS011;39735;51.432;5.482;2023-11-19T11:59:45;59.05;;;8.95;;
53833;SDS011;39735;51.432;5.482;2023-11-19T12:02:11;46.65;;;8.10;;
53833;SDS011;39735;51.432;5.482;2023-11-19T12:04:39;47.08;;;8.32;;
53833;SDS011;39735;51.432;5.482;2023-11-19T12:10:06;74.82;;;10.10;;
53833;SDS011;39735;51.432;5.482;2023-11-19T12:12:32;79.15;;;11.85;;
53833;SDS011;39735;51.432;5.482;2023-11-19T12:17:42;41.33;;;5.88;;
53833;SDS011;39735;51.432;5.482;2023-11-19T12:20:10;73.88;;;9.07;;
53833;SDS011;39735;51.432;5.482;2023-11-19T12:22:39;77.72;;;10.35;;
53833;SDS011;39735;51.432;5.482;2023-11-19T12:25:05;35.80;;;6.57;;
53833;SDS011;39735;51.432;5.482;2023-11-19T12:27:31;86.70;;;11.95;;
53833;SDS011;39735;51.432;5.482;2023-11-19T12:29:56;73.70;;;10.20;;
53833;SDS011;39735;51.432;5.482;2023-11-19T12:32:22;57.38;;;10.40;;
53833;SDS011;39735;51.432;5.482;2023-11-19T12:34:47;49.00;;;8.30;;
53833;SDS011;39735;51.432;5.482;2023-11-19T12:37:12;80.88;;;13.15;;
53833;SDS011;39735;51.432;5.482;2023-11-19T12:39:38;37.60;;;6.50;;
53833;SDS011;39735;51.432;5.482;2023-11-19T12:42:03;41.63;;;6.53;;
53833;SDS011;39735;51.432;5.482;2023-11-19T12:44:28;88.68;;;8.63;;
53833;SDS011;39735;51.432;5.482;2023-11-19T12:47:01;72.88;;;10.82;;
53833;SDS011;39735;51.432;5.482;2023-11-19T12:49:26;71.20;;;12.15;;
53833;SDS011;39735;51.432;5.482;2023-11-19T12:51:51;73.07;;;8.50;;
53833;SDS011;39735;51.432;5.482;2023-11-19T12:54:17;60.65;;;10.18;;
53833;SDS011;39735;51.432;5.482;2023-11-19T12:56:52;50.58;;;8.13;;
53833;SDS011;39735;51.432;5.482;2023-11-19T12:59:17;52.10;;;8.07;;
53833;SDS011;39735;51.432;5.482;2023-11-19T13:01:53;77.60;;;11.45;;
53833;SDS011;39735;51.432;5.482;2023-11-19T13:04:19;46.30;;;7.72;;
53833;SDS011;39735;51.432;5.482;2023-11-19T13:06:47;53.00;;;8.02;;
53833;SDS011;39735;51.432;5.482;2023-11-19T13:09:22;58.55;;;7.10;;
53833;SDS011;39735;51.432;5.482;2023-11-19T13:11:49;75.50;;;7.28;;
53833;SDS011;39735;51.432;5.482;2023-11-19T13:14:14;53.85;;;9.07;;
53833;SDS011;39735;51.432;5.482;2023-11-19T13:16:39;52.13;;;11.00;;
53833;SDS011;39735;51.432;5.482;2023-11-19T13:19:05;64.28;;;5.55;;
53833;SDS011;39735;51.432;5.482;2023-11-19T13:21:30;58.95;;;7.50;;
53833;SDS011;39735;51.432;5.482;2023-11-19T13:23:56;59.63;;;7.75;;
53833;SDS011;39735;51.432;5.482;2023-11-19T13:26:21;47.72;;;8.75;;
53833;SDS011;39735;51.432;5.482;2023-11-19T13:28:46;84.93;;;11.10;;
53833;SDS011;39735;51.432;5.482;2023-11-19T13:31:12;45.90;;;7.57;;
53833;SDS011;39735;51.432;5.482;2023-11-19T13:33:37;51.15;;;5.80;;
53833;SDS011;39735;51.432;5.482;2023-11-19T13:36:03;54.72;;;6.47;;
53833;SDS011;39735;51.432;5.482;2023-11-19T13:38:33;62.72;;;10.15;;
53833;SDS011;39735;51.432;5.482;2023-11-19T13:41:00;37.08;;;7.57;;
53833;SDS011;39735;51.432;5.482;2023-11-19T13:43:26;50.50;;;5.60;;
53833;SDS011;39735;51.432;5.482;2023-11-19T13:45:53;42.42;;;8.65;;
53833;SDS011;39735;51.432;5.482;2023-11-19T13:48:18;49.88;;;7.20;;
53833;SDS011;39735;51.432;5.482;2023-11-19T13:50:43;41.38;;;7.65;;
53833;SDS011;39735;51.432;5.482;2023-11-19T13:53:08;65.17;;;7.80;;
53833;SDS011;39735;51.432;5.482;2023-11-19T13:55:34;60.47;;;8.73;;
53833;SDS011;39735;51.432;5.482;2023-11-19T13:57:59;38.17;;;6.72;;
53833;SDS011;39735;51.432;5.482;2023-11-19T14:00:24;55.13;;;7.45;;
53833;SDS011;39735;51.432;5.482;2023-11-19T14:02:50;62.58;;;6.50;;
53833;SDS011;39735;51.432;5.482;2023-11-19T14:05:15;54.13;;;8.23;;
53833;SDS011;39735;51.432;5.482;2023-11-19T14:07:42;53.22;;;8.05;;
53833;SDS011;39735;51.432;5.482;2023-11-19T14:10:08;49.25;;;7.07;;
53833;SDS011;39735;51.432;5.482;2023-11-19T14:12:39;58.83;;;8.15;;
53833;SDS011;39735;51.432;5.482;2023-11-19T14:15:05;43.92;;;8.70;;
53833;SDS011;39735;51.432;5.482;2023-11-19T14:17:42;43.00;;;6.10;;
53833;SDS011;39735;51.432;5.482;2023-11-19T14:20:07;67.93;;;12.02;;
53833;SDS011;39735;51.432;5.482;2023-11-19T14:22:38;37.28;;;8.23;;
53833;SDS011;39735;51.432;5.482;2023-11-19T14:25:03;48.15;;;9.98;;
53833;SDS011;39735;51.432;5.482;2023-11-19T14:27:30;30.25;;;6.60;;
53833;SDS011;39735;51.432;5.482;2023-11-19T14:29:55;53.90;;;9.33;;
53833;SDS011;39735;51.432;5.482;2023-11-19T14:32:20;47.00;;;6.83;;
53833;SDS011;39735;51.432;5.482;2023-11-19T14:34:45;43.00;;;5.93;;
53833;SDS011;39735;51.432;5.482;2023-11-19T14:37:10;43.63;;;5.93;;
53833;SDS011;39735;51.432;5.482;2023-11-19T14:39:36;62.03;;;6.90;;
53833;SDS011;39735;51.432;5.482;2023-11-19T14:42:01;33.60;;;6.67;;
53833;SDS011;39735;51.432;5.482;2023-11-19T14:44:29;54.63;;;9.75;;
53833;SDS011;39735;51.432;5.482;2023-11-19T14:46:55;58.83;;;6.93;;
53833;SDS011;39735;51.432;5.482;2023-11-19T14:49:20;47.05;;;7.45;;
53833;SDS011;39735;51.432;5.482;2023-11-19T14:51:45;52.10;;;7.27;;